createdAt,value
2023-03-06T00:00:46.728Z,13.35
2023-03-06T00:03:14.404Z,11.57
2023-03-06T00:05:41.430Z,11.57
2023-03-06T00:08:10.216Z,14.45
2023-03-06T00:10:38.479Z,8.80
2023-03-06T00:13:07.077Z,9.43
2023-03-06T00:15:34.377Z,9.38
2023-03-06T00:18:04.140Z,10.07
2023-03-06T00:20:31.110Z,12.32
2023-03-06T00:22:58.487Z,11.35
2023-03-06T00:25:26.894Z,13.30
2023-03-06T00:27:53.850Z,12.73
2023-03-06T00:30:23.869Z,14.32
2023-03-06T00:32:55.149Z,11.50
2023-03-06T00:35:24.312Z,13.63
2023-03-06T00:37:52.045Z,10.38
2023-03-06T00:43:05.096Z,11.52
2023-03-06T00:45:33.744Z,9.90
2023-03-06T00:48:02.010Z,10.48
2023-03-06T00:50:29.564Z,12.60
2023-03-06T00:53:02.706Z,10.52
2023-03-06T00:58:13.670Z,8.10
2023-03-06T01:00:44.479Z,10.18
2023-03-06T01:03:11.933Z,8.85
2023-03-06T01:05:39.174Z,10.15
2023-03-06T01:08:12.426Z,10.65
2023-03-06T01:13:07.325Z,13.73
2023-03-06T01:15:36.932Z,9.60
2023-03-06T01:18:05.666Z,13.43
2023-03-06T01:20:32.627Z,11.98
2023-03-06T01:22:59.605Z,10.40
2023-03-06T01:25:28.281Z,8.95
2023-03-06T01:27:57.047Z,9.02
2023-03-06T01:30:24.750Z,8.50
2023-03-06T01:32:54.353Z,10.00
2023-03-06T01:35:23.669Z,12.15
2023-03-06T01:37:52.142Z,11.52
2023-03-06T01:40:21.956Z,12.35
2023-03-06T01:42:50.500Z,9.45
2023-03-06T01:46:00.181Z,10.13
2023-03-06T01:48:28.747Z,13.65
2023-03-06T01:53:24.410Z,9.40
2023-03-06T01:55:52.195Z,16.02
2023-03-06T01:58:19.649Z,11.43
2023-03-06T02:00:47.878Z,10.75
2023-03-06T02:03:17.228Z,9.70
2023-03-06T02:05:45.876Z,10.45
2023-03-06T02:08:15.541Z,12.00
2023-03-06T02:10:43.486Z,10.70
2023-03-06T02:13:10.714Z,11.98
2023-03-06T02:15:38.196Z,12.15
2023-03-06T02:18:05.701Z,14.90
2023-03-06T02:20:38.032Z,13.43
2023-03-06T02:23:10.420Z,10.43
2023-03-06T02:25:41.610Z,14.32
2023-03-06T02:28:11.174Z,12.82
2023-03-06T02:30:44.788Z,10.68
2023-03-06T02:33:13.616Z,14.27
2023-03-06T02:35:41.415Z,11.63
2023-03-06T02:38:10.451Z,11.05
2023-03-06T02:43:05.596Z,10.45
2023-03-06T02:45:36.050Z,9.90
2023-03-06T02:48:03.189Z,10.68
2023-03-06T02:50:30.395Z,10.20
2023-03-06T02:52:57.365Z,9.55
2023-03-06T02:55:25.336Z,11.23
2023-03-06T02:57:56.296Z,11.38
2023-03-06T03:00:25.677Z,11.68
2023-03-06T03:02:53.217Z,13.18
2023-03-06T03:05:20.491Z,13.23
2023-03-06T03:07:53.329Z,11.50
2023-03-06T03:10:21.360Z,15.25
2023-03-06T03:12:48.874Z,13.02
2023-03-06T03:15:16.868Z,11.85
2023-03-06T03:17:45.523Z,11.68
2023-03-06T03:20:14.846Z,11.60
2023-03-06T03:22:42.342Z,14.07
2023-03-06T03:25:09.941Z,12.95
2023-03-06T03:27:37.321Z,12.05
2023-03-06T03:30:06.246Z,12.10
2023-03-06T03:32:33.361Z,14.65
2023-03-06T03:35:03.025Z,12.85
2023-03-06T03:37:30.196Z,11.35
2023-03-06T03:39:59.232Z,15.68
2023-03-06T03:42:26.342Z,14.73
2023-03-06T03:44:54.190Z,10.63
2023-03-06T03:47:22.207Z,13.15
2023-03-06T03:49:50.355Z,14.05
2023-03-06T03:52:21.166Z,13.95
2023-03-06T03:54:48.179Z,14.50
2023-03-06T03:57:15.399Z,10.90
2023-03-06T03:59:47.964Z,12.60
2023-03-06T04:02:23.860Z,13.32
2023-03-06T04:05:10.382Z,10.02
2023-03-06T04:07:38.998Z,14.77
2023-03-06T04:10:07.436Z,16.38
2023-03-06T04:12:36.002Z,15.20
2023-03-06T04:15:04.373Z,10.60
2023-03-06T04:17:34.153Z,16.20
2023-03-06T04:20:03.026Z,12.32
2023-03-06T04:22:31.255Z,17.48
2023-03-06T04:25:00.159Z,14.70
2023-03-06T04:27:27.206Z,15.13
2023-03-06T04:29:56.600Z,14.75
2023-03-06T04:32:25.385Z,11.95
2023-03-06T04:34:52.516Z,13.65
2023-03-06T04:37:21.409Z,16.65
2023-03-06T04:39:48.934Z,13.40
2023-03-06T04:42:17.671Z,14.50
2023-03-06T04:44:44.814Z,13.73
2023-03-06T04:47:12.174Z,15.77
2023-03-06T04:49:40.834Z,15.43
2023-03-06T04:52:08.134Z,14.13
2023-03-06T04:54:35.062Z,17.42
2023-03-06T04:57:02.065Z,15.50
2023-03-06T04:59:30.415Z,16.60
2023-03-06T05:01:58.174Z,17.35
2023-03-06T05:04:25.648Z,14.98
2023-03-06T05:06:52.909Z,15.82
2023-03-06T05:09:19.905Z,20.77
2023-03-06T05:11:46.919Z,14.38
2023-03-06T05:14:14.382Z,17.52
2023-03-06T05:16:42.966Z,11.90
2023-03-06T05:19:09.818Z,18.25
2023-03-06T05:21:37.405Z,15.57
2023-03-06T05:24:05.364Z,16.13
2023-03-06T05:26:32.976Z,14.13
2023-03-06T05:29:00.109Z,16.10
2023-03-06T05:31:28.963Z,17.27
2023-03-06T05:33:57.983Z,13.23
2023-03-06T05:36:25.263Z,12.90
2023-03-06T05:38:54.461Z,20.17
2023-03-06T05:41:21.798Z,10.55
2023-03-06T05:43:48.861Z,18.00
2023-03-06T05:46:15.885Z,12.98
2023-03-06T05:48:51.735Z,21.38
2023-03-06T05:51:20.151Z,20.05
2023-03-06T05:53:47.133Z,14.25
2023-03-06T05:56:14.585Z,19.00
2023-03-06T05:58:42.694Z,11.63
2023-03-06T06:01:10.725Z,17.98
2023-03-06T06:03:38.635Z,13.75
2023-03-06T06:06:07.778Z,15.95
2023-03-06T06:08:36.107Z,15.10
2023-03-06T06:11:04.800Z,17.75
2023-03-06T06:13:32.250Z,15.55
2023-03-06T06:16:00.418Z,14.82
2023-03-06T06:18:27.912Z,16.83
2023-03-06T06:20:56.016Z,16.15
2023-03-06T06:23:23.199Z,15.85
2023-03-06T06:25:51.626Z,12.05
2023-03-06T06:28:18.563Z,16.23
2023-03-06T06:30:46.566Z,14.25
2023-03-06T06:33:14.624Z,11.50
2023-03-06T06:35:43.520Z,13.00
2023-03-06T06:38:10.444Z,11.20
2023-03-06T06:40:37.853Z,11.52
2023-03-06T06:43:06.264Z,12.65
2023-03-06T06:45:33.449Z,13.73
2023-03-06T06:48:00.417Z,13.35
2023-03-06T06:50:27.410Z,14.65
2023-03-06T06:52:55.020Z,15.02
2023-03-06T06:55:22.481Z,12.35
2023-03-06T06:57:49.482Z,17.75
2023-03-06T07:00:19.464Z,12.88
2023-03-06T07:02:49.320Z,11.38
2023-03-06T07:05:16.881Z,12.10
2023-03-06T07:07:44.980Z,11.82
2023-03-06T07:10:14.348Z,11.98
2023-03-06T07:12:41.442Z,12.80
2023-03-06T07:15:09.302Z,13.73
2023-03-06T07:17:38.083Z,12.48
2023-03-06T07:20:07.286Z,19.33
2023-03-06T07:22:48.658Z,15.07
2023-03-06T07:25:17.915Z,14.55
2023-03-06T07:27:51.056Z,14.20
2023-03-06T07:32:49.209Z,14.35
2023-03-06T07:35:20.347Z,13.35
2023-03-06T07:37:47.959Z,15.00
2023-03-06T07:40:14.985Z,15.45
2023-03-06T07:42:42.211Z,21.08
2023-03-06T07:45:13.324Z,14.88
2023-03-06T07:47:40.783Z,13.98
2023-03-06T07:50:10.296Z,14.93
2023-03-06T07:52:37.184Z,16.60
2023-03-06T07:55:04.946Z,12.98
2023-03-06T07:57:31.900Z,14.73
2023-03-06T08:00:06.034Z,17.98
2023-03-06T08:02:40.345Z,16.15
2023-03-06T08:05:12.702Z,15.18
2023-03-06T08:07:40.756Z,17.40
2023-03-06T08:10:08.464Z,18.88
2023-03-06T08:12:37.240Z,13.18
2023-03-06T08:15:06.424Z,18.05
2023-03-06T08:17:33.345Z,14.93
2023-03-06T08:20:00.864Z,15.43
2023-03-06T08:22:31.963Z,14.80
2023-03-06T08:25:01.281Z,15.73
2023-03-06T08:27:28.552Z,18.73
2023-03-06T08:29:55.568Z,13.35
2023-03-06T08:32:24.880Z,14.02
2023-03-06T08:34:52.973Z,14.57
2023-03-06T08:37:20.269Z,18.23
2023-03-06T08:39:55.241Z,19.52
2023-03-06T08:42:23.137Z,17.77
2023-03-06T08:44:50.672Z,16.73
2023-03-06T08:47:18.192Z,13.68
2023-03-06T08:49:45.796Z,14.88
2023-03-06T08:52:12.780Z,15.25
2023-03-06T08:54:39.793Z,12.00
2023-03-06T08:57:09.450Z,13.45
2023-03-06T08:59:37.866Z,15.88
2023-03-06T09:02:06.751Z,16.42
2023-03-06T09:04:34.445Z,13.45
2023-03-06T09:07:01.883Z,17.38
2023-03-06T09:09:29.851Z,21.00
2023-03-06T09:11:59.292Z,15.63
2023-03-06T09:14:28.005Z,15.88
2023-03-06T09:16:55.083Z,14.50
2023-03-06T09:19:22.379Z,15.05
2023-03-06T09:21:50.089Z,14.50
2023-03-06T09:24:17.690Z,15.77
2023-03-06T09:26:46.733Z,16.98
2023-03-06T09:29:16.603Z,14.02
2023-03-06T09:31:46.152Z,13.82
2023-03-06T09:34:13.190Z,16.67
2023-03-06T09:36:55.336Z,16.08
2023-03-06T09:39:25.234Z,17.00
2023-03-06T09:41:55.099Z,14.70
2023-03-06T09:44:23.754Z,19.05
2023-03-06T09:47:24.857Z,13.88
2023-03-06T09:50:14.520Z,15.05
2023-03-06T09:52:46.257Z,13.98
2023-03-06T09:55:17.162Z,14.90
2023-03-06T09:58:08.320Z,22.85
2023-03-06T10:00:38.736Z,14.25
2023-03-06T10:03:17.843Z,15.10
2023-03-06T10:05:47.539Z,13.77
2023-03-06T10:08:31.098Z,13.98
2023-03-06T10:11:01.979Z,13.35
2023-03-06T10:13:35.884Z,15.52
2023-03-06T10:16:08.834Z,15.57
2023-03-06T10:18:39.084Z,10.88
2023-03-06T10:21:20.326Z,11.77
2023-03-06T10:23:53.716Z,11.68
2023-03-06T10:26:23.430Z,13.63
2023-03-06T10:28:57.970Z,15.77
2023-03-06T10:33:56.593Z,12.90
2023-03-06T10:36:30.085Z,11.95
2023-03-06T10:41:30.719Z,9.40
2023-03-06T10:44:23.827Z,10.73
2023-03-06T10:46:53.233Z,10.50
2023-03-06T10:49:42.716Z,13.20
2023-03-06T10:52:21.776Z,13.75
2023-03-06T10:54:48.910Z,12.15
2023-03-06T10:57:24.144Z,8.85
2023-03-06T11:00:06.419Z,9.93
2023-03-06T11:02:36.853Z,6.57
2023-03-06T11:05:19.706Z,6.75
2023-03-06T11:07:54.895Z,6.88
2023-03-06T11:10:23.369Z,9.52
2023-03-06T11:12:57.590Z,5.40
2023-03-06T11:15:25.265Z,4.70
2023-03-06T11:18:01.134Z,5.07
2023-03-06T11:20:48.506Z,7.47
2023-03-06T11:23:19.284Z,8.10
2023-03-06T11:25:48.942Z,5.05
2023-03-06T11:28:20.673Z,3.92
2023-03-06T11:30:49.444Z,6.10
2023-03-06T11:33:22.340Z,4.80
2023-03-06T11:35:56.266Z,4.75
2023-03-06T11:38:32.698Z,5.20
2023-03-06T11:41:01.407Z,5.43
2023-03-06T11:43:34.267Z,5.53
2023-03-06T11:46:06.661Z,6.88
2023-03-06T11:48:37.015Z,5.47
2023-03-06T11:51:11.974Z,5.03
2023-03-06T11:53:40.252Z,5.43
2023-03-06T11:56:22.967Z,4.78
2023-03-06T11:58:57.229Z,7.13
2023-03-06T12:01:28.576Z,6.25
2023-03-06T12:04:43.767Z,4.90
2023-03-06T12:07:29.363Z,9.85
2023-03-06T12:10:02.533Z,7.95
2023-03-06T12:12:45.648Z,7.38
2023-03-06T12:15:23.010Z,6.53
2023-03-06T12:18:03.927Z,6.03
2023-03-06T12:20:41.639Z,5.10
2023-03-06T12:23:22.167Z,4.53
2023-03-06T12:25:52.074Z,7.00
2023-03-06T12:28:40.255Z,5.20
2023-03-06T12:31:18.018Z,5.95
2023-03-06T12:33:51.953Z,4.38
2023-03-06T12:36:29.034Z,5.93
2023-03-06T12:39:09.211Z,4.72
2023-03-06T12:41:56.869Z,7.03
2023-03-06T12:44:51.560Z,5.60
2023-03-06T12:47:22.464Z,5.40
2023-03-06T12:49:53.800Z,7.50
2023-03-06T12:52:29.603Z,5.53
2023-03-06T12:54:59.320Z,6.53
2023-03-06T12:57:26.927Z,5.68
2023-03-06T12:59:54.978Z,6.10
2023-03-06T13:02:58.086Z,5.57
2023-03-06T13:05:49.585Z,5.00
2023-03-06T13:08:46.598Z,7.47
2023-03-06T13:11:37.451Z,5.18
2023-03-06T13:14:22.181Z,6.40
2023-03-06T13:16:49.376Z,5.05
2023-03-06T13:19:19.131Z,3.83
2023-03-06T13:22:26.657Z,2.85
2023-03-06T13:25:28.982Z,6.85
2023-03-06T13:28:04.865Z,5.63
2023-03-06T13:30:52.962Z,5.03
2023-03-06T13:33:52.367Z,6.80
2023-03-06T13:36:28.181Z,5.55
2023-03-06T13:39:06.270Z,5.43
2023-03-06T13:41:56.409Z,4.88
2023-03-06T13:44:51.068Z,4.32
2023-03-06T13:48:02.855Z,6.93
2023-03-06T13:50:37.901Z,4.10
2023-03-06T13:53:28.741Z,3.95
2023-03-06T13:56:05.167Z,4.22
2023-03-06T13:58:44.368Z,4.30
2023-03-06T14:01:22.415Z,4.07
2023-03-06T14:04:17.059Z,4.35
2023-03-06T14:06:51.507Z,3.17
2023-03-06T14:09:26.795Z,3.00
2023-03-06T14:11:58.394Z,3.72
2023-03-06T14:14:33.284Z,3.05
2023-03-06T14:17:04.844Z,4.88
2023-03-06T14:19:37.567Z,3.15
2023-03-06T14:22:06.041Z,2.58
2023-03-06T14:24:36.660Z,3.22
2023-03-06T14:27:04.103Z,1.77
2023-03-06T14:29:33.216Z,3.47
2023-03-06T14:32:06.084Z,2.33
2023-03-06T14:34:37.665Z,4.05
2023-03-06T14:37:07.896Z,4.68
2023-03-06T14:39:37.808Z,3.67
2023-03-06T14:42:06.224Z,4.13
2023-03-06T14:47:28.638Z,4.93
2023-03-06T14:50:24.129Z,4.50
2023-03-06T14:52:54.060Z,5.88
2023-03-06T14:55:23.841Z,5.70
2023-03-06T14:57:59.365Z,7.45
2023-03-06T15:00:32.240Z,3.63
2023-03-06T15:03:02.357Z,4.57
2023-03-06T15:05:30.225Z,6.07
2023-03-06T15:07:59.675Z,3.63
2023-03-06T15:10:30.209Z,5.50
2023-03-06T15:13:08.813Z,3.90
2023-03-06T15:15:36.109Z,3.75
2023-03-06T15:18:28.914Z,5.10
2023-03-06T15:21:06.859Z,5.03
2023-03-06T15:23:39.018Z,4.45
2023-03-06T15:26:23.968Z,3.83
2023-03-06T15:29:08.228Z,4.22
2023-03-06T15:31:36.747Z,4.38
2023-03-06T15:34:25.155Z,5.72
2023-03-06T15:36:54.959Z,6.10
2023-03-06T15:39:33.963Z,4.95
2023-03-06T15:42:05.127Z,7.07
2023-03-06T15:44:33.227Z,5.75
2023-03-06T15:47:08.410Z,4.75
2023-03-06T15:49:39.273Z,4.60
2023-03-06T15:52:06.658Z,3.58
2023-03-06T15:54:33.719Z,4.32
2023-03-06T15:57:01.057Z,5.30
2023-03-06T15:59:33.377Z,5.30
2023-03-06T16:02:04.048Z,4.22
2023-03-06T16:04:31.060Z,4.43
2023-03-06T16:06:59.465Z,6.38
2023-03-06T16:11:59.457Z,5.15
2023-03-06T16:14:36.965Z,5.78
2023-03-06T16:17:04.228Z,5.65
2023-03-06T16:19:33.447Z,5.35
2023-03-06T16:22:01.905Z,3.42
2023-03-06T16:26:59.645Z,4.72
2023-03-06T16:29:30.638Z,6.05
2023-03-06T16:32:03.388Z,5.72
2023-03-06T16:35:11.817Z,8.05
2023-03-06T16:37:50.620Z,3.80
2023-03-06T16:40:23.155Z,4.13
2023-03-06T16:42:53.993Z,3.40
2023-03-06T16:45:21.443Z,3.67
2023-03-06T16:47:48.993Z,6.47
2023-03-06T16:50:22.770Z,4.53
2023-03-06T16:52:52.263Z,5.85
2023-03-06T16:55:19.894Z,5.57
2023-03-06T16:57:47.347Z,8.27
2023-03-06T17:00:15.996Z,5.15
2023-03-06T17:02:44.043Z,6.20
2023-03-06T17:05:12.066Z,5.07
2023-03-06T17:07:39.837Z,7.57
2023-03-06T17:10:11.197Z,4.75
2023-03-06T17:12:38.307Z,3.53
2023-03-06T17:15:07.784Z,3.53
2023-03-06T17:17:36.073Z,4.78
2023-03-06T17:20:04.121Z,3.47
2023-03-06T17:22:33.717Z,4.20
2023-03-06T17:25:00.799Z,4.80
2023-03-06T17:27:29.827Z,4.63
2023-03-06T17:30:02.039Z,4.68
2023-03-06T17:32:29.941Z,3.67
2023-03-06T17:34:57.167Z,7.45
2023-03-06T17:37:25.701Z,18.83
2023-03-06T17:39:52.819Z,24.40
2023-03-06T17:42:21.503Z,9.90
2023-03-06T17:44:51.085Z,8.10
2023-03-06T17:47:19.968Z,5.20
2023-03-06T17:49:47.025Z,6.68
2023-03-06T17:52:13.988Z,6.57
2023-03-06T17:54:41.331Z,5.30
2023-03-06T17:57:10.124Z,5.93
2023-03-06T17:59:37.582Z,4.88
2023-03-06T18:02:07.032Z,5.80
2023-03-06T18:04:35.373Z,6.68
2023-03-06T18:07:02.394Z,5.82
2023-03-06T18:09:29.488Z,7.90
2023-03-06T18:11:56.674Z,7.07
2023-03-06T18:14:25.179Z,6.90
2023-03-06T18:16:52.453Z,6.60
2023-03-06T18:19:21.982Z,6.70
2023-03-06T18:21:49.464Z,9.93
2023-03-06T18:24:16.499Z,7.68
2023-03-06T18:26:44.247Z,6.53
2023-03-06T18:29:11.336Z,8.80
2023-03-06T18:31:42.349Z,6.82
2023-03-06T18:34:11.205Z,8.93
2023-03-06T18:36:40.402Z,8.18
2023-03-06T18:39:09.685Z,7.57
2023-03-06T18:41:37.574Z,7.32
2023-03-06T18:44:05.188Z,8.43
2023-03-06T18:46:33.761Z,8.35
2023-03-06T18:51:29.953Z,7.82
2023-03-06T18:54:00.173Z,5.63
2023-03-06T18:56:38.110Z,8.27
2023-03-06T18:59:06.565Z,8.30
2023-03-06T19:01:34.600Z,8.38
2023-03-06T19:04:03.861Z,7.05
2023-03-06T19:06:31.711Z,5.05
2023-03-06T19:09:04.985Z,6.95
2023-03-06T19:11:32.521Z,6.32
2023-03-06T19:14:01.680Z,5.63
2023-03-06T19:16:30.308Z,6.70
2023-03-06T19:18:57.971Z,5.20
2023-03-06T19:21:26.980Z,5.53
2023-03-06T19:23:57.516Z,3.63
2023-03-06T19:26:28.117Z,6.93
2023-03-06T19:28:57.125Z,6.13
2023-03-06T19:31:27.111Z,5.03
2023-03-06T19:34:02.311Z,4.00
2023-03-06T19:36:33.689Z,5.97
2023-03-06T19:39:04.116Z,5.88
2023-03-06T19:41:33.391Z,16.05
2023-03-06T19:44:09.901Z,6.63
2023-03-06T19:46:41.526Z,3.95
2023-03-06T19:49:13.649Z,6.53
2023-03-06T19:51:40.758Z,4.05
2023-03-06T19:54:07.999Z,6.15
2023-03-06T19:56:36.779Z,3.35
2023-03-06T19:59:05.085Z,3.85
2023-03-06T20:01:34.296Z,4.15
2023-03-06T20:04:01.662Z,5.25
2023-03-06T20:06:30.342Z,4.72
2023-03-06T20:11:25.860Z,5.45
2023-03-06T20:16:21.394Z,3.65
2023-03-06T20:18:49.802Z,4.30
2023-03-06T20:21:16.874Z,5.90
2023-03-06T20:23:44.108Z,6.43
2023-03-06T20:26:13.321Z,9.05
2023-03-06T20:28:41.658Z,3.83
2023-03-06T20:31:11.255Z,6.18
2023-03-06T20:33:41.622Z,5.00
2023-03-06T20:36:12.298Z,8.13
2023-03-06T20:38:40.566Z,4.18
2023-03-06T20:41:08.920Z,4.63
2023-03-06T20:43:35.942Z,7.47
2023-03-06T20:46:06.013Z,5.22
2023-03-06T20:48:38.513Z,6.75
2023-03-06T20:51:07.639Z,6.15
2023-03-06T20:53:37.741Z,6.72
2023-03-06T20:56:05.572Z,4.90
2023-03-06T20:58:32.717Z,3.53
2023-03-06T21:01:02.294Z,5.75
2023-03-06T21:03:29.794Z,7.82
2023-03-06T21:05:58.355Z,6.25
2023-03-06T21:08:25.387Z,4.50
2023-03-06T21:10:52.345Z,4.85
2023-03-06T21:13:19.846Z,4.80
2023-03-06T21:15:48.063Z,7.13
2023-03-06T21:18:15.592Z,5.30
2023-03-06T21:20:44.419Z,6.95
2023-03-06T21:23:12.802Z,5.78
2023-03-06T21:28:16.652Z,4.85
2023-03-06T21:30:43.998Z,9.95
2023-03-06T21:33:12.829Z,5.90
2023-03-06T21:35:41.016Z,3.42
2023-03-06T21:38:08.221Z,4.07
2023-03-06T21:40:36.970Z,4.32
2023-03-06T21:43:04.326Z,4.63
2023-03-06T21:45:31.515Z,3.83
2023-03-06T21:47:58.952Z,5.32
2023-03-06T21:50:26.778Z,10.13
2023-03-06T21:52:54.216Z,4.60
2023-03-06T21:55:21.610Z,8.20
2023-03-06T21:57:51.522Z,5.15
2023-03-06T22:00:19.702Z,6.30
2023-03-06T22:02:47.813Z,6.43
2023-03-06T22:05:14.905Z,5.30
2023-03-06T22:07:42.670Z,5.88
2023-03-06T22:10:15.665Z,3.75
2023-03-06T22:12:42.994Z,3.83
2023-03-06T22:15:12.170Z,7.82
2023-03-06T22:17:41.654Z,7.00
2023-03-06T22:20:10.239Z,3.25
2023-03-06T22:22:37.292Z,5.22
2023-03-06T22:25:05.088Z,5.90
2023-03-06T22:27:32.046Z,7.57
2023-03-06T22:30:00.426Z,5.68
2023-03-06T22:32:28.780Z,4.00
2023-03-06T22:34:55.743Z,3.88
2023-03-06T22:37:22.796Z,5.75
2023-03-06T22:39:49.712Z,6.55
2023-03-06T22:42:16.624Z,4.65
2023-03-06T22:44:44.246Z,4.75
2023-03-06T22:47:11.314Z,4.28
2023-03-06T22:49:41.425Z,5.95
2023-03-06T22:52:09.077Z,4.82
2023-03-06T22:54:36.233Z,5.28
2023-03-06T22:57:03.151Z,5.20
2023-03-06T22:59:30.174Z,5.38
2023-03-06T23:01:57.407Z,4.32
2023-03-06T23:04:26.514Z,6.25
2023-03-06T23:06:56.361Z,4.25
2023-03-06T23:12:11.560Z,5.28
2023-03-06T23:14:57.409Z,5.78
2023-03-06T23:17:43.471Z,8.65
2023-03-06T23:20:29.030Z,8.27
2023-03-06T23:23:16.343Z,6.40
2023-03-06T23:25:43.954Z,8.85
2023-03-06T23:28:12.008Z,9.23
2023-03-06T23:30:39.488Z,9.18
2023-03-06T23:33:06.823Z,9.70
2023-03-06T23:35:34.336Z,13.40
2023-03-06T23:38:03.082Z,10.02
2023-03-06T23:40:33.512Z,11.85
2023-03-06T23:45:28.019Z,11.55
2023-03-06T23:47:54.980Z,11.77
2023-03-06T23:50:23.123Z,11.10
2023-03-06T23:52:51.699Z,10.32
2023-03-06T23:55:19.186Z,10.77
2023-03-06T23:57:47.695Z,11.02
